createdAt,value
2017-11-25T00:00:52.534Z,95.36
2017-11-25T00:01:52.514Z,95.56
2017-11-25T00:02:52.505Z,95.36
2017-11-25T00:03:52.512Z,95.36
2017-11-25T00:04:52.495Z,95.17
2017-11-25T00:05:52.483Z,95.56
2017-11-25T00:06:52.218Z,95.36
2017-11-25T00:07:52.464Z,95.27
2017-11-25T00:08:52.561Z,95.36
2017-11-25T00:09:52.449Z,95.27
2017-11-25T00:10:52.442Z,95.56
2017-11-25T00:11:52.532Z,95.36
2017-11-25T00:12:52.425Z,95.08
2017-11-25T00:13:52.416Z,95.65
2017-11-25T00:14:52.407Z,95.46
2017-11-25T00:15:52.401Z,95.46
2017-11-25T00:16:52.393Z,95.27
2017-11-25T00:17:52.383Z,95.27
2017-11-25T00:18:52.387Z,96.22
2017-11-25T00:19:52.364Z,96.12
2017-11-25T00:20:52.355Z,96.22
2017-11-25T00:21:52.456Z,95.84
2017-11-25T00:22:52.347Z,96.03
2017-11-25T00:23:52.339Z,95.84
2017-11-25T00:24:52.331Z,96.12
2017-11-25T00:25:52.318Z,96.41
2017-11-25T00:26:52.309Z,96.12
2017-11-25T00:27:52.305Z,96.22
2017-11-25T00:28:52.393Z,95.84
2017-11-25T00:29:52.023Z,95.84
2017-11-25T00:30:52.272Z,96.22
2017-11-25T00:31:52.008Z,96.31
2017-11-25T00:32:52.360Z,96.12
2017-11-25T00:33:52.250Z,96.41
2017-11-25T00:34:52.241Z,96.03
2017-11-25T00:35:52.242Z,96.03
2017-11-25T00:36:52.228Z,96.12
2017-11-25T00:37:52.321Z,96.12
2017-11-25T00:38:52.310Z,96.12
2017-11-25T00:39:51.943Z,96.12
2017-11-25T00:40:52.192Z,96.12
2017-11-25T00:41:52.194Z,96.12
2017-11-25T00:42:52.174Z,96.22
2017-11-25T00:43:52.169Z,96.12
2017-11-25T00:44:52.162Z,96.31
2017-11-25T00:45:52.152Z,96.03
2017-11-25T00:46:52.150Z,96.03
2017-11-25T00:47:52.233Z,95.94
2017-11-25T00:48:52.132Z,95.94
2017-11-25T00:49:51.857Z,96.12
2017-11-25T00:50:52.112Z,96.12
2017-11-25T00:51:52.101Z,96.03
2017-11-25T00:52:52.100Z,95.84
2017-11-25T00:53:52.083Z,96.03
2017-11-25T00:54:52.079Z,95.84
2017-11-25T00:55:52.013Z,96.84
2017-11-25T00:56:52.064Z,95.75
2017-11-25T00:57:52.052Z,95.75
2017-11-25T00:58:52.044Z,95.94
2017-11-25T00:59:52.043Z,96.17
2017-11-25T01:00:52.024Z,95.94
2017-11-25T01:01:52.029Z,95.94
2017-11-25T01:02:52.112Z,95.94
2017-11-25T01:03:52.002Z,96.03
2017-11-25T01:04:51.834Z,95.94
2017-11-25T01:05:51.997Z,95.75
2017-11-25T01:06:51.982Z,95.84
2017-11-25T01:07:51.710Z,96.65
2017-11-25T01:08:51.961Z,96.55
2017-11-25T01:09:51.702Z,96.6
2017-11-25T01:10:51.944Z,96.7
2017-11-25T01:11:51.936Z,96.7
2017-11-25T01:12:51.670Z,96.7
2017-11-25T01:13:51.926Z,96.7
2017-11-25T01:14:51.914Z,95.89
2017-11-25T01:15:51.907Z,95.79
2017-11-25T01:16:51.898Z,95.98
2017-11-25T01:17:51.988Z,96.08
2017-11-25T01:18:51.881Z,95.98
2017-11-25T01:19:51.877Z,96.6
2017-11-25T01:20:51.871Z,96.55
2017-11-25T01:21:51.855Z,96.79
2017-11-25T01:22:51.857Z,96.65
2017-11-25T01:23:51.837Z,96.51
2017-11-25T01:24:51.829Z,96.65
2017-11-25T01:25:51.565Z,96.7
2017-11-25T01:26:51.813Z,96.55
2017-11-25T01:27:51.808Z,96.36
2017-11-25T01:28:51.802Z,96.55
2017-11-25T01:29:51.789Z,96.55
2017-11-25T01:30:51.520Z,96.22
2017-11-25T01:31:51.770Z,96.55
2017-11-25T01:32:51.763Z,96.51
2017-11-25T01:33:51.757Z,96.55
2017-11-25T01:34:51.747Z,96.75
2017-11-25T01:35:51.763Z,96.51
2017-11-25T01:36:51.732Z,95.98
2017-11-25T01:37:51.730Z,96.6
2017-11-25T01:38:51.815Z,96.75
2017-11-25T01:39:51.706Z,96.51
2017-11-25T01:40:51.697Z,96.41
2017-11-25T01:41:51.690Z,96.94
2017-11-25T01:42:51.685Z,96.41
2017-11-25T01:43:51.677Z,97.31
2017-11-25T01:44:51.663Z,97.08
2017-11-25T01:45:51.675Z,97.27
2017-11-25T01:46:51.649Z,97.17
2017-11-25T01:47:51.380Z,97.17
2017-11-25T01:48:51.640Z,97.17
2017-11-25T01:49:51.720Z,97.27
2017-11-25T01:50:51.356Z,97.31
2017-11-25T01:51:51.346Z,96.65
2017-11-25T01:52:51.597Z,96.51
2017-11-25T01:53:51.691Z,96.7
2017-11-25T01:54:51.321Z,96.75
2017-11-25T01:55:51.573Z,96.75
2017-11-25T01:56:51.563Z,96.75
2017-11-25T01:57:51.298Z,96.51
2017-11-25T01:58:51.292Z,96.51
2017-11-25T01:59:51.551Z,96.31
2017-11-25T02:00:51.538Z,96.46
2017-11-25T02:01:51.522Z,96.31
2017-11-25T02:02:51.515Z,96.46
2017-11-25T02:03:51.512Z,96.55
2017-11-25T02:04:51.239Z,96.55
2017-11-25T02:05:51.331Z,96.65
2017-11-25T02:06:51.323Z,96.55
2017-11-25T02:07:51.215Z,96.65
2017-11-25T02:08:51.206Z,96.65
2017-11-25T02:09:51.488Z,96.65
2017-11-25T02:10:51.446Z,96.6
2017-11-25T02:11:51.462Z,96.65
2017-11-25T02:12:51.433Z,96.65
2017-11-25T02:13:51.426Z,96.55
2017-11-25T02:14:51.159Z,96.31
2017-11-25T02:15:51.411Z,96.36
2017-11-25T02:16:51.415Z,96.41
2017-11-25T02:17:51.495Z,96.31
2017-11-25T02:18:51.384Z,96.22
2017-11-25T02:19:51.381Z,96.41
2017-11-25T02:20:51.367Z,96.51
2017-11-25T02:21:51.365Z,96.41
2017-11-25T02:22:51.353Z,96.7
2017-11-25T02:23:51.343Z,96.51
2017-11-25T02:24:51.338Z,96.51
2017-11-25T02:25:51.327Z,96.51
2017-11-25T02:26:51.320Z,96.31
2017-11-25T02:27:51.412Z,96.31
2017-11-25T02:28:51.042Z,96.31
2017-11-25T02:29:51.295Z,96.51
2017-11-25T02:30:51.288Z,96.79
2017-11-25T02:31:51.290Z,96.41
2017-11-25T02:32:51.271Z,96.89
2017-11-25T02:33:51.265Z,96.41
2017-11-25T02:34:51.262Z,96.7
2017-11-25T02:35:51.247Z,96.51
2017-11-25T02:36:51.251Z,96.7
2017-11-25T02:37:51.231Z,96.7
2017-11-25T02:38:50.960Z,96.31
2017-11-25T02:39:51.207Z,96.89
2017-11-25T02:40:51.204Z,96.51
2017-11-25T02:41:51.193Z,96.7
2017-11-25T02:42:51.190Z,96.7
2017-11-25T02:43:51.179Z,96.31
2017-11-25T02:44:51.171Z,96.41
2017-11-25T02:45:51.265Z,97.36
2017-11-25T02:46:51.164Z,97.08
2017-11-25T02:47:51.151Z,97.17
2017-11-25T02:48:51.141Z,97.08
2017-11-25T02:49:51.144Z,97.17
2017-11-25T02:50:51.123Z,96.89
2017-11-25T02:51:51.169Z,96.79
2017-11-25T02:52:51.108Z,96.51
2017-11-25T02:53:51.105Z,96.7
2017-11-25T02:54:51.090Z,96.89
2017-11-25T02:55:51.080Z,97.27
2017-11-25T02:56:50.812Z,97.46
2017-11-25T02:57:51.062Z,97.46
2017-11-25T02:58:51.053Z,97.36
2017-11-25T02:59:51.047Z,97.17
2017-11-25T03:00:50.776Z,97.46
2017-11-25T03:01:51.029Z,97.36
2017-11-25T03:02:51.016Z,97.27
2017-11-25T03:03:51.010Z,97.46
2017-11-25T03:04:51.007Z,97.46
2017-11-25T03:05:51.000Z,96.6
2017-11-25T03:06:50.995Z,96.89
2017-11-25T03:07:50.979Z,96.89
2017-11-25T03:08:51.069Z,96.98
2017-11-25T03:09:50.966Z,97.46
2017-11-25T03:10:50.800Z,97.46
2017-11-25T03:11:50.952Z,97.08
2017-11-25T03:12:50.935Z,97.17
2017-11-25T03:13:50.928Z,97.08
2017-11-25T03:14:50.921Z,97.27
2017-11-25T03:15:50.653Z,97.27
2017-11-25T03:16:50.648Z,97.46
2017-11-25T03:17:50.894Z,97.27
2017-11-25T03:18:50.888Z,97.27
2017-11-25T03:19:50.878Z,97.08
2017-11-25T03:20:50.871Z,97.27
2017-11-25T03:21:50.864Z,97.36
2017-11-25T03:22:50.855Z,97.27
2017-11-25T03:23:50.586Z,97.27
2017-11-25T03:24:50.839Z,97.27
2017-11-25T03:25:50.853Z,97.74
2017-11-25T03:26:50.562Z,97.55
2017-11-25T03:27:50.812Z,97.46
2017-11-25T03:28:50.805Z,97.27
2017-11-25T03:29:50.797Z,97.46
2017-11-25T03:30:50.795Z,97.36
2017-11-25T03:31:50.521Z,97.36
2017-11-25T03:32:50.520Z,97.93
2017-11-25T03:33:50.776Z,97.27
2017-11-25T03:34:50.757Z,97.36
2017-11-25T03:35:50.747Z,97.65
2017-11-25T03:36:50.738Z,97.27
2017-11-25T03:37:50.468Z,97.93
2017-11-25T03:38:50.462Z,97.84
2017-11-25T03:39:50.715Z,97.74
2017-11-25T03:40:50.705Z,97.84
2017-11-25T03:41:50.439Z,97.65
2017-11-25T03:42:50.693Z,97.41
2017-11-25T03:43:50.680Z,97.22
2017-11-25T03:44:50.673Z,97.98
2017-11-25T03:45:50.672Z,98.08
2017-11-25T03:46:50.401Z,98.08
2017-11-25T03:47:50.391Z,98.08
2017-11-25T03:48:50.381Z,98.08
2017-11-25T03:49:50.376Z,98.08
2017-11-25T03:50:50.628Z,98.08
2017-11-25T03:51:50.617Z,98.22
2017-11-25T03:52:50.626Z,98.08
2017-11-25T03:53:50.340Z,98.08
2017-11-25T03:54:50.589Z,97.84
2017-11-25T03:55:50.322Z,98.27
2017-11-25T03:56:50.575Z,98.46
2017-11-25T03:57:50.563Z,98.36
2017-11-25T03:58:50.562Z,98.27
2017-11-25T03:59:50.549Z,98.27
2017-11-25T04:00:50.545Z,98.36
2017-11-25T04:01:50.277Z,99.12
2017-11-25T04:02:50.524Z,98.83
2017-11-25T04:03:50.621Z,99.02
2017-11-25T04:04:50.514Z,98.65
2017-11-25T04:05:50.502Z,98.83
2017-11-25T04:06:50.230Z,98.17
2017-11-25T04:07:50.482Z,98.83
2017-11-25T04:08:50.470Z,98.36
2017-11-25T04:09:50.473Z,98.55
2017-11-25T04:10:50.197Z,98.93
2017-11-25T04:11:50.451Z,99.12
2017-11-25T04:12:50.539Z,98.93
2017-11-25T04:13:50.433Z,98.93
2017-11-25T04:14:50.424Z,98.83
2017-11-25T04:15:50.414Z,98.83
2017-11-25T04:16:50.414Z,98.93
2017-11-25T04:17:50.400Z,98.74
2017-11-25T04:18:50.394Z,98.83
2017-11-25T04:19:50.123Z,99.31
2017-11-25T04:20:50.374Z,99.22
2017-11-25T04:21:50.375Z,98.83
2017-11-25T04:22:50.358Z,99.31
2017-11-25T04:23:50.448Z,99.22
2017-11-25T04:24:50.190Z,98.93
2017-11-25T04:25:50.330Z,99.31
2017-11-25T04:26:50.064Z,98.83
2017-11-25T04:27:50.325Z,98.74
2017-11-25T04:28:50.316Z,98.83
2017-11-25T04:29:50.321Z,98.83
2017-11-25T04:30:50.297Z,99.22
2017-11-25T04:31:50.023Z,99.31
2017-11-25T04:32:50.014Z,98.93
2017-11-25T04:33:50.008Z,99.02
2017-11-25T04:34:49.996Z,98.83
2017-11-25T04:35:50.260Z,99.31
2017-11-25T04:36:50.243Z,98.83
2017-11-25T04:37:50.234Z,98.93
2017-11-25T04:38:50.223Z,98.74
2017-11-25T04:39:50.215Z,98.93
2017-11-25T04:40:50.211Z,99.69
2017-11-25T04:41:50.205Z,99.98
2017-11-25T04:42:50.191Z,99.69
2017-11-25T04:43:50.185Z,99.88
2017-11-25T04:44:50.273Z,99.02
2017-11-25T04:45:50.165Z,99.02
2017-11-25T04:46:49.896Z,99.02
2017-11-25T04:47:50.149Z,99.22
2017-11-25T04:48:50.136Z,99.12
2017-11-25T04:49:50.137Z,99.12
2017-11-25T04:50:49.862Z,99.12
2017-11-25T04:51:49.854Z,99.31
2017-11-25T04:52:49.849Z,99.12
2017-11-25T04:53:50.098Z,99.02
2017-11-25T04:54:50.099Z,99.02
2017-11-25T04:55:50.182Z,99.31
2017-11-25T04:56:50.074Z,99.22
2017-11-25T04:57:50.065Z,99.22
2017-11-25T04:58:50.055Z,98.74
2017-11-25T04:59:50.045Z,99.02
2017-11-25T05:00:50.038Z,99.12
2017-11-25T05:01:50.035Z,98.93
2017-11-25T05:02:50.024Z,99.12
2017-11-25T05:03:50.012Z,99.22
2017-11-25T05:04:50.016Z,98.93
2017-11-25T05:05:49.996Z,99.41
2017-11-25T05:06:49.989Z,99.12
2017-11-25T05:07:49.987Z,99.02
2017-11-25T05:08:49.974Z,98.65
2017-11-25T05:09:49.961Z,98.65
2017-11-25T05:10:49.698Z,99.41
2017-11-25T05:11:49.950Z,98.98
2017-11-25T05:12:49.940Z,99.27
2017-11-25T05:13:49.936Z,98.83
2017-11-25T05:14:50.022Z,99.12
2017-11-25T05:15:49.655Z,98.36
2017-11-25T05:16:49.905Z,98.36
2017-11-25T05:17:49.900Z,99.22
2017-11-25T05:18:49.894Z,98.74
2017-11-25T05:19:49.624Z,99.02
2017-11-25T05:20:49.872Z,99.02
2017-11-25T05:21:49.865Z,98.93
2017-11-25T05:22:49.599Z,98.93
2017-11-25T05:23:49.853Z,98.93
2017-11-25T05:24:49.843Z,99.12
2017-11-25T05:25:49.835Z,98.98
2017-11-25T05:26:49.820Z,98.83
2017-11-25T05:27:49.557Z,99.31
2017-11-25T05:28:49.904Z,99.31
2017-11-25T05:29:49.800Z,98.98
2017-11-25T05:30:49.792Z,98.83
2017-11-25T05:31:49.787Z,99.02
2017-11-25T05:32:49.512Z,99.12
2017-11-25T05:33:49.506Z,98.65
2017-11-25T05:34:49.754Z,98.69
2017-11-25T05:35:49.749Z,98.69
2017-11-25T05:36:49.480Z,99.12
2017-11-25T05:37:49.730Z,98.88
2017-11-25T05:38:49.722Z,98.65
2017-11-25T05:39:49.721Z,98.74
2017-11-25T05:40:49.704Z,99.02
2017-11-25T05:41:49.697Z,98.6
2017-11-25T05:42:49.687Z,98.55
2017-11-25T05:43:49.850Z,99.02
2017-11-25T05:44:49.776Z,98.69
2017-11-25T05:45:49.662Z,98.83
2017-11-25T05:46:49.654Z,99.02
2017-11-25T05:47:49.652Z,98.65
2017-11-25T05:48:49.639Z,98.55
2017-11-25T05:49:49.632Z,98.83
2017-11-25T05:50:49.361Z,99.22
2017-11-25T05:51:49.617Z,98.74
2017-11-25T05:52:49.611Z,98.65
2017-11-25T05:53:49.343Z,98.36
2017-11-25T05:54:49.594Z,98.55
2017-11-25T05:55:49.579Z,98.55
2017-11-25T05:56:49.312Z,98.55
2017-11-25T05:57:49.563Z,98.36
2017-11-25T05:58:49.558Z,99.02
2017-11-25T05:59:49.290Z,98.74
2017-11-25T06:00:49.537Z,99.22
2017-11-25T06:01:49.630Z,98.93
2017-11-25T06:02:49.526Z,99.22
2017-11-25T06:03:49.515Z,99.31
2017-11-25T06:04:49.505Z,98.55
2017-11-25T06:05:49.501Z,99.31
2017-11-25T06:06:49.488Z,99.12
2017-11-25T06:07:49.485Z,98.93
2017-11-25T06:08:49.214Z,99.12
2017-11-25T06:09:49.565Z,98.83
2017-11-25T06:10:49.457Z,98.93
2017-11-25T06:11:49.456Z,98.65
2017-11-25T06:12:49.440Z,99.22
2017-11-25T06:13:49.532Z,98.74
2017-11-25T06:14:49.421Z,98.74
2017-11-25T06:15:49.413Z,98.83
2017-11-25T06:16:49.405Z,99.02
2017-11-25T06:17:49.406Z,99.12
2017-11-25T06:18:49.488Z,99.98
2017-11-25T06:19:49.377Z,99.88
2017-11-25T06:20:49.376Z,99.5
2017-11-25T06:21:49.365Z,99.88
2017-11-25T06:22:49.097Z,99.6
2017-11-25T06:23:49.455Z,99.99
2017-11-25T06:24:49.341Z,99.69
2017-11-25T06:25:49.337Z,99.69
2017-11-25T06:26:49.321Z,99.99
2017-11-25T06:27:49.314Z,99.99
2017-11-25T06:28:49.305Z,99.99
2017-11-25T06:29:49.301Z,99.99
2017-11-25T06:30:49.031Z,99.99
2017-11-25T06:31:49.284Z,99.99
2017-11-25T06:32:49.332Z,99.99
2017-11-25T06:33:49.103Z,99.99
2017-11-25T06:34:49.254Z,99.99
2017-11-25T06:35:48.986Z,99.99
2017-11-25T06:36:49.241Z,99.99
2017-11-25T06:37:49.229Z,99.99
2017-11-25T06:38:49.226Z,99.99
2017-11-25T06:39:49.232Z,99.99
2017-11-25T06:40:49.202Z,99.99
2017-11-25T06:41:49.195Z,99.99
2017-11-25T06:42:49.186Z,99.99
2017-11-25T06:43:49.179Z,99.99
2017-11-25T06:44:49.172Z,99.99
2017-11-25T06:45:49.163Z,99.99
2017-11-25T06:46:49.159Z,99.99
2017-11-25T06:47:49.146Z,99.99
2017-11-25T06:48:49.135Z,99.99
2017-11-25T06:49:49.132Z,99.99
2017-11-25T06:50:49.123Z,99.99
2017-11-25T06:51:49.113Z,99.99
2017-11-25T06:52:49.110Z,99.99
2017-11-25T06:53:49.097Z,99.99
2017-11-25T06:54:49.093Z,99.99
2017-11-25T06:55:49.105Z,99.99
2017-11-25T06:56:49.074Z,99.99
2017-11-25T06:57:49.073Z,99.99
2017-11-25T06:58:49.153Z,99.99
2017-11-25T06:59:49.048Z,99.99
2017-11-25T07:00:48.780Z,99.99
2017-11-25T07:01:49.030Z,99.99
2017-11-25T07:02:48.762Z,99.99
2017-11-25T07:03:49.016Z,99.99
2017-11-25T07:04:49.019Z,99.99
2017-11-25T07:05:48.997Z,99.99
2017-11-25T07:06:48.985Z,99.99
2017-11-25T07:07:48.722Z,99.99
2017-11-25T07:08:49.071Z,99.99
2017-11-25T07:09:48.707Z,99.99
2017-11-25T07:10:48.966Z,99.99
2017-11-25T07:11:49.051Z,99.99
2017-11-25T07:12:48.939Z,99.99
2017-11-25T07:13:48.927Z,99.99
2017-11-25T07:14:48.924Z,99.99
2017-11-25T07:15:48.913Z,99.99
2017-11-25T07:16:48.903Z,99.99
2017-11-25T07:17:48.996Z,99.99
2017-11-25T07:18:48.886Z,99.99
2017-11-25T07:19:48.881Z,99.99
2017-11-25T07:20:48.868Z,99.99
2017-11-25T07:21:48.861Z,99.99
2017-11-25T07:22:48.862Z,99.99
2017-11-25T07:23:48.842Z,99.99
2017-11-25T07:24:48.577Z,99.99
2017-11-25T07:25:48.838Z,99.99
2017-11-25T07:26:48.920Z,99.99
2017-11-25T07:27:48.811Z,99.99
2017-11-25T07:28:48.811Z,99.99
2017-11-25T07:29:48.537Z,99.99
2017-11-25T07:30:48.534Z,99.99
2017-11-25T07:31:48.778Z,99.99
2017-11-25T07:32:48.511Z,99.99
2017-11-25T07:33:48.763Z,99.99
2017-11-25T07:34:48.752Z,99.99
2017-11-25T07:35:48.746Z,99.99
2017-11-25T07:36:48.733Z,99.99
2017-11-25T07:37:48.467Z,99.99
2017-11-25T07:38:48.475Z,99.99
2017-11-25T07:39:48.712Z,99.99
2017-11-25T07:40:48.707Z,99.99
2017-11-25T07:41:48.703Z,99.99
2017-11-25T07:42:48.683Z,99.99
2017-11-25T07:43:48.418Z,99.99
2017-11-25T07:44:48.673Z,99.99
2017-11-25T07:45:48.403Z,99.99
2017-11-25T07:46:48.651Z,99.99
2017-11-25T07:47:48.644Z,99.99
2017-11-25T07:48:48.635Z,99.99
2017-11-25T07:49:48.366Z,99.99
2017-11-25T07:50:48.614Z,99.99
2017-11-25T07:51:48.609Z,99.99
2017-11-25T07:52:48.597Z,99.99
2017-11-25T07:53:48.331Z,99.99
2017-11-25T07:54:48.585Z,99.99
2017-11-25T07:55:48.576Z,99.99
2017-11-25T07:56:48.566Z,99.99
2017-11-25T07:57:48.561Z,99.99
2017-11-25T07:58:48.550Z,98.83
2017-11-25T07:59:48.542Z,99.02
2017-11-25T08:00:48.532Z,98.22
2017-11-25T08:01:48.522Z,97.93
2017-11-25T08:02:48.518Z,97.36
2017-11-25T08:03:48.608Z,97.36
2017-11-25T08:04:48.598Z,97.83
2017-11-25T08:05:48.490Z,97.83
2017-11-25T08:06:48.482Z,98.41
2017-11-25T08:07:48.470Z,98.41
2017-11-25T08:08:48.466Z,98.69
2017-11-25T08:09:48.455Z,98.88
2017-11-25T08:10:48.187Z,98.6
2017-11-25T08:11:48.438Z,99.55
2017-11-25T08:12:48.169Z,99.74
2017-11-25T08:13:48.621Z,99.99
2017-11-25T08:14:48.411Z,99.93
2017-11-25T08:15:48.411Z,99.93
2017-11-25T08:16:48.389Z,99.74
2017-11-25T08:17:48.400Z,99.99
2017-11-25T08:18:48.116Z,99.74
2017-11-25T08:19:48.364Z,99.99
2017-11-25T08:20:48.098Z,99.99
2017-11-25T08:21:48.088Z,99.99
2017-11-25T08:22:48.077Z,99.99
2017-11-25T08:23:48.075Z,99.99
2017-11-25T08:24:48.329Z,99.99
2017-11-25T08:25:48.052Z,99.99
2017-11-25T08:26:48.306Z,99.99
2017-11-25T08:27:48.293Z,99.99
2017-11-25T08:28:48.288Z,99.99
2017-11-25T08:29:48.278Z,99.99
2017-11-25T08:30:48.012Z,99.99
2017-11-25T08:31:48.260Z,99.99
2017-11-25T08:32:48.252Z,99.99
2017-11-25T08:33:48.241Z,99.99
2017-11-25T08:34:47.975Z,99.99
2017-11-25T08:35:48.228Z,99.99
2017-11-25T08:36:48.214Z,99.99
2017-11-25T08:37:47.946Z,99.99
2017-11-25T08:38:47.943Z,99.99
2017-11-25T08:39:47.929Z,99.99
2017-11-25T08:40:47.937Z,99.99
2017-11-25T08:41:48.172Z,99.99
2017-11-25T08:42:48.166Z,99.99
2017-11-25T08:43:48.256Z,99.99
2017-11-25T08:44:48.150Z,99.99
2017-11-25T08:45:48.137Z,99.99
2017-11-25T08:46:48.128Z,99.99
2017-11-25T08:47:48.122Z,99.99
2017-11-25T08:48:48.113Z,99.99
2017-11-25T08:49:48.104Z,99.99
2017-11-25T08:50:47.835Z,99.99
2017-11-25T08:51:48.086Z,99.99
2017-11-25T08:52:48.175Z,99.99
2017-11-25T08:53:48.067Z,99.99
2017-11-25T08:54:48.063Z,99.99
2017-11-25T08:55:47.793Z,99.99
2017-11-25T08:56:48.040Z,99.99
2017-11-25T08:57:48.037Z,99.99
2017-11-25T08:58:47.763Z,99.99
2017-11-25T08:59:47.755Z,99.99
2017-11-25T09:00:48.012Z,99.99
2017-11-25T09:01:48.000Z,99.99
2017-11-25T09:02:47.731Z,99.99
2017-11-25T09:03:47.981Z,99.99
2017-11-25T09:04:47.970Z,99.99
2017-11-25T09:05:47.703Z,99.99
2017-11-25T09:06:47.696Z,99.99
2017-11-25T09:07:47.687Z,99.99
2017-11-25T09:08:47.938Z,99.99
2017-11-25T09:09:47.929Z,99.99
2017-11-25T09:10:47.659Z,99.99
2017-11-25T09:11:47.652Z,99.99
2017-11-25T09:12:47.645Z,99.99
2017-11-25T09:13:47.890Z,99.99
2017-11-25T09:14:47.885Z,99.99
2017-11-25T09:15:47.877Z,99.99
2017-11-25T09:16:47.708Z,99.99
2017-11-25T09:17:47.857Z,99.99
2017-11-25T09:18:47.863Z,99.99
2017-11-25T09:19:47.940Z,99.99
2017-11-25T09:20:47.829Z,99.99
2017-11-25T09:21:47.826Z,99.99
2017-11-25T09:22:47.819Z,99.99
2017-11-25T09:23:47.803Z,99.99
2017-11-25T09:24:47.801Z,99.99
2017-11-25T09:25:47.531Z,99.99
2017-11-25T09:26:47.782Z,99.99
2017-11-25T09:27:47.773Z,99.99
2017-11-25T09:28:47.764Z,99.99
2017-11-25T09:29:47.755Z,99.99
2017-11-25T09:30:47.747Z,99.99
2017-11-25T09:31:47.737Z,99.99
2017-11-25T09:32:47.730Z,99.99
2017-11-25T09:33:47.461Z,99.99
2017-11-25T09:34:47.721Z,99.99
2017-11-25T09:35:47.701Z,99.99
2017-11-25T09:36:47.706Z,99.99
2017-11-25T09:37:47.697Z,99.99
2017-11-25T09:38:47.520Z,99.99
2017-11-25T09:39:47.670Z,99.99
2017-11-25T09:40:47.658Z,99.99
2017-11-25T09:41:47.652Z,99.99
2017-11-25T09:42:47.644Z,99.99
2017-11-25T09:43:47.637Z,99.99
2017-11-25T09:44:47.625Z,99.99
2017-11-25T09:45:47.358Z,99.99
2017-11-25T09:46:47.615Z,99.99
2017-11-25T09:47:47.703Z,99.99
2017-11-25T09:48:47.590Z,99.99
2017-11-25T09:49:47.526Z,99.99
2017-11-25T09:50:47.575Z,99.99
2017-11-25T09:51:47.563Z,99.99
2017-11-25T09:52:47.558Z,99.99
2017-11-25T09:53:47.554Z,99.99
2017-11-25T09:54:47.540Z,99.99
2017-11-25T09:55:47.272Z,99.99
2017-11-25T09:56:47.522Z,99.99
2017-11-25T09:57:47.255Z,99.99
2017-11-25T09:58:47.503Z,99.99
2017-11-25T09:59:47.501Z,99.99
2017-11-25T10:00:47.231Z,99.99
2017-11-25T10:01:47.481Z,99.99
2017-11-25T10:02:47.472Z,99.99
2017-11-25T10:03:47.564Z,99.99
2017-11-25T10:04:47.457Z,99.99
2017-11-25T10:05:47.447Z,99.99
2017-11-25T10:06:47.440Z,99.99
2017-11-25T10:07:47.431Z,99.99
2017-11-25T10:08:47.421Z,99.99
2017-11-25T10:09:47.414Z,99.99
2017-11-25T10:10:47.407Z,99.99
2017-11-25T10:11:47.403Z,99.99
2017-11-25T10:12:47.390Z,99.99
2017-11-25T10:13:47.120Z,99.99
2017-11-25T10:14:47.366Z,99.99
2017-11-25T10:15:47.376Z,99.99
2017-11-25T10:16:47.356Z,99.99
2017-11-25T10:17:47.342Z,99.99
2017-11-25T10:18:47.445Z,99.99
2017-11-25T10:19:47.325Z,99.99
2017-11-25T10:20:47.317Z,99.99
2017-11-25T10:21:47.307Z,99.99
2017-11-25T10:22:47.297Z,99.99
2017-11-25T10:23:47.293Z,99.99
2017-11-25T10:24:47.124Z,99.99
2017-11-25T10:25:47.016Z,99.99
2017-11-25T10:26:47.263Z,99.99
2017-11-25T10:27:46.997Z,99.99
2017-11-25T10:28:47.248Z,99.99
2017-11-25T10:29:47.252Z,99.99
2017-11-25T10:30:47.229Z,99.99
2017-11-25T10:31:47.220Z,99.99
2017-11-25T10:32:47.211Z,99.99
2017-11-25T10:33:47.304Z,99.99
2017-11-25T10:34:47.199Z,99.99
2017-11-25T10:35:46.927Z,99.99
2017-11-25T10:36:47.187Z,99.99
2017-11-25T10:37:47.168Z,99.99
2017-11-25T10:38:47.155Z,99.99
2017-11-25T10:39:47.153Z,99.99
2017-11-25T10:40:47.137Z,99.99
2017-11-25T10:41:46.871Z,99.99
2017-11-25T10:42:46.869Z,99.99
2017-11-25T10:43:47.114Z,99.99
2017-11-25T10:44:47.107Z,99.99
2017-11-25T10:45:47.096Z,99.99
2017-11-25T10:46:47.095Z,99.99
2017-11-25T10:47:47.082Z,99.99
2017-11-25T10:48:47.069Z,99.99
2017-11-25T10:49:47.065Z,99.99
2017-11-25T10:50:47.048Z,99.99
2017-11-25T10:51:47.044Z,99.99
2017-11-25T10:52:47.035Z,99.99
2017-11-25T10:53:46.765Z,99.99
2017-11-25T10:54:47.022Z,99.99
2017-11-25T10:55:46.748Z,99.99
2017-11-25T10:56:46.993Z,99.99
2017-11-25T10:57:46.992Z,99.99
2017-11-25T10:58:46.976Z,99.99
2017-11-25T10:59:46.966Z,99.99
2017-11-25T11:00:46.965Z,99.99
2017-11-25T11:01:46.692Z,99.99
2017-11-25T11:02:47.042Z,99.99
2017-11-25T11:03:46.937Z,99.99
2017-11-25T11:04:46.925Z,99.99
2017-11-25T11:05:46.916Z,99.99
2017-11-25T11:06:46.903Z,99.99
2017-11-25T11:07:46.897Z,99.99
2017-11-25T11:08:46.628Z,99.99
2017-11-25T11:09:46.879Z,99.99
2017-11-25T11:10:46.867Z,99.99
2017-11-25T11:11:46.859Z,99.99
2017-11-25T11:12:46.853Z,99.99
2017-11-25T11:13:46.843Z,99.99
2017-11-25T11:14:46.835Z,99.99
2017-11-25T11:15:46.855Z,99.99
2017-11-25T11:16:46.812Z,99.99
2017-11-25T11:17:46.804Z,99.99
2017-11-25T11:18:46.537Z,99.99
2017-11-25T11:19:46.792Z,99.99
2017-11-25T11:20:46.780Z,99.99
2017-11-25T11:21:46.771Z,99.99
2017-11-25T11:22:46.500Z,99.99
2017-11-25T11:23:46.751Z,99.99
2017-11-25T11:24:46.741Z,99.99
2017-11-25T11:25:46.735Z,99.99
2017-11-25T11:26:46.725Z,99.99
2017-11-25T11:27:46.719Z,99.99
2017-11-25T11:28:46.705Z,99.99
2017-11-25T11:29:46.698Z,99.99
2017-11-25T11:30:46.687Z,99.99
2017-11-25T11:31:46.713Z,99.99
2017-11-25T11:32:46.408Z,99.99
2017-11-25T11:33:46.656Z,99.99
2017-11-25T11:34:46.389Z,99.99
2017-11-25T11:35:46.645Z,99.99
2017-11-25T11:36:46.472Z,99.99
2017-11-25T11:37:46.624Z,99.99
2017-11-25T11:38:46.610Z,99.99
2017-11-25T11:39:46.710Z,99.99
2017-11-25T11:40:46.337Z,99.99
2017-11-25T11:41:46.591Z,99.99
2017-11-25T11:42:46.606Z,99.99
2017-11-25T11:43:46.568Z,99.99
2017-11-25T11:44:46.300Z,99.99
2017-11-25T11:45:46.291Z,99.99
2017-11-25T11:46:46.283Z,99.99
2017-11-25T11:47:46.537Z,99.99
2017-11-25T11:48:46.523Z,99.99
2017-11-25T11:49:46.524Z,99.99
2017-11-25T11:50:46.504Z,99.99
2017-11-25T11:51:46.496Z,99.99
2017-11-25T11:52:46.587Z,99.99
2017-11-25T11:53:46.484Z,99.99
2017-11-25T11:54:46.477Z,99.99
2017-11-25T11:55:46.475Z,99.99
2017-11-25T11:56:46.452Z,99.99
2017-11-25T11:57:46.185Z,99.99
2017-11-25T11:58:46.433Z,99.99
2017-11-25T11:59:46.429Z,99.99
2017-11-25T12:00:46.416Z,99.99
2017-11-25T12:01:46.147Z,99.99
2017-11-25T12:02:46.401Z,99.99
2017-11-25T12:03:46.491Z,99.99
2017-11-25T12:04:46.381Z,99.99
2017-11-25T12:05:46.368Z,99.99
2017-11-25T12:06:46.102Z,99.99
2017-11-25T12:07:46.355Z,99.99
2017-11-25T12:08:46.344Z,99.99
2017-11-25T12:09:46.439Z,99.99
2017-11-25T12:10:46.328Z,99.99
2017-11-25T12:11:46.417Z,99.99
2017-11-25T12:12:46.310Z,99.99
2017-11-25T12:13:46.299Z,99.99
2017-11-25T12:14:46.290Z,99.99
2017-11-25T12:15:46.299Z,99.99
2017-11-25T12:16:46.274Z,99.77
2017-11-25T12:17:46.363Z,99.99
2017-11-25T12:18:46.261Z,99.99
2017-11-25T12:19:46.245Z,99.49
2017-11-25T12:20:46.235Z,99.97
2017-11-25T12:21:45.968Z,99.68
2017-11-25T12:22:46.326Z,99.68
2017-11-25T12:23:46.209Z,99.99
2017-11-25T12:24:46.201Z,99.97
2017-11-25T12:25:45.933Z,99.97
2017-11-25T12:26:46.189Z,99.99
2017-11-25T12:27:46.182Z,99.99
2017-11-25T12:28:45.908Z,99.99
2017-11-25T12:29:45.899Z,99.99
2017-11-25T12:30:46.150Z,99.99
2017-11-25T12:31:46.144Z,99.77
2017-11-25T12:32:46.134Z,99.87
2017-11-25T12:33:46.125Z,99.68
2017-11-25T12:34:46.114Z,99.97
2017-11-25T12:35:46.107Z,99.68
2017-11-25T12:36:46.102Z,99.87
2017-11-25T12:37:46.087Z,99.49
2017-11-25T12:38:46.086Z,99.97
2017-11-25T12:39:46.067Z,99.99
2017-11-25T12:40:46.060Z,99.99
2017-11-25T12:41:45.792Z,99.99
2017-11-25T12:42:45.783Z,99.99
2017-11-25T12:43:46.043Z,99.99
2017-11-25T12:44:46.031Z,99.99
2017-11-25T12:45:45.764Z,99.99
2017-11-25T12:46:46.013Z,99.99
2017-11-25T12:47:46.001Z,99.99
2017-11-25T12:48:45.988Z,99.99
2017-11-25T12:49:45.977Z,99.99
2017-11-25T12:50:45.970Z,99.99
2017-11-25T12:51:45.964Z,99.99
2017-11-25T12:52:45.966Z,99.99
2017-11-25T12:53:45.950Z,99.99